createdAt,value
2023-04-03T00:01:39.668Z,100.00
2023-04-03T00:04:10.065Z,100.00
2023-04-03T00:06:42.760Z,100.00
2023-04-03T00:09:12.820Z,100.00
2023-04-03T00:11:43.047Z,100.00
2023-04-03T00:14:13.052Z,100.00
2023-04-03T00:16:43.401Z,100.00
2023-04-03T00:19:14.184Z,100.00
2023-04-03T00:21:46.810Z,100.00
2023-04-03T00:24:16.980Z,100.00
2023-04-03T00:26:47.274Z,100.00
2023-04-03T00:29:17.594Z,100.00
2023-04-03T00:31:47.619Z,100.00
2023-04-03T00:34:18.179Z,100.00
2023-04-03T00:36:50.907Z,100.00
2023-04-03T00:39:21.365Z,100.00
2023-04-03T00:41:51.576Z,100.00
2023-04-03T00:44:24.356Z,100.00
2023-04-03T00:46:54.523Z,100.00
2023-04-03T00:49:25.275Z,100.00
2023-04-03T00:51:59.113Z,100.00
2023-04-03T00:54:30.137Z,100.00
2023-04-03T00:57:01.659Z,100.00
2023-04-03T00:59:36.181Z,100.00
2023-04-03T01:02:06.530Z,100.00
2023-04-03T01:04:38.307Z,100.00
2023-04-03T01:07:13.931Z,100.00
2023-04-03T01:09:45.141Z,100.00
2023-04-03T01:12:19.693Z,100.00
2023-04-03T01:14:54.270Z,100.00
2023-04-03T01:17:33.419Z,100.00
2023-04-03T01:20:32.524Z,100.00
2023-04-03T01:23:24.298Z,100.00
2023-04-03T01:25:56.996Z,100.00
2023-04-03T01:28:29.628Z,100.00
2023-04-03T01:31:07.878Z,100.00
2023-04-03T01:33:42.257Z,100.00
2023-04-03T01:36:13.457Z,100.00
2023-04-03T01:38:43.844Z,100.00
2023-04-03T01:41:13.991Z,100.00
2023-04-03T01:43:45.008Z,100.00
2023-04-03T01:46:15.182Z,100.00
2023-04-03T01:48:48.065Z,100.00
2023-04-03T01:51:18.586Z,100.00
2023-04-03T01:53:48.694Z,100.00
2023-04-03T01:56:18.582Z,100.00
2023-04-03T01:58:49.281Z,100.00
2023-04-03T02:01:20.169Z,100.00
2023-04-03T02:03:52.896Z,100.00
2023-04-03T02:06:23.279Z,100.00
2023-04-03T02:08:53.516Z,100.00
2023-04-03T02:11:23.661Z,100.00
2023-04-03T02:13:53.563Z,100.00
2023-04-03T02:16:23.894Z,100.00
2023-04-03T02:18:56.947Z,100.00
2023-04-03T02:21:27.295Z,100.00
2023-04-03T02:23:58.497Z,100.00
2023-04-03T02:26:28.952Z,100.00
2023-04-03T02:28:59.154Z,100.00
2023-04-03T02:31:29.799Z,100.00
2023-04-03T02:34:03.408Z,100.00
2023-04-03T02:36:33.494Z,100.00
2023-04-03T02:39:07.504Z,100.00
2023-04-03T02:41:39.224Z,100.00
2023-04-03T02:44:16.446Z,100.00
2023-04-03T02:46:46.567Z,100.00
2023-04-03T02:49:19.897Z,100.00
2023-04-03T02:51:49.905Z,100.00
2023-04-03T02:54:20.036Z,100.00
2023-04-03T02:56:55.537Z,100.00
2023-04-03T02:59:26.025Z,100.00
2023-04-03T03:01:57.032Z,100.00
2023-04-03T03:04:30.015Z,100.00
2023-04-03T03:07:01.173Z,100.00
2023-04-03T03:09:33.082Z,100.00
2023-04-03T03:12:03.580Z,100.00
2023-04-03T03:14:33.700Z,100.00
2023-04-03T03:17:04.099Z,100.00
2023-04-03T03:19:36.825Z,100.00
2023-04-03T03:22:07.560Z,100.00
2023-04-03T03:24:38.212Z,100.00
2023-04-03T03:27:08.845Z,100.00
2023-04-03T03:29:38.995Z,100.00
2023-04-03T03:32:09.923Z,100.00
2023-04-03T03:34:42.981Z,100.00
2023-04-03T03:37:12.920Z,100.00
2023-04-03T03:39:43.502Z,100.00
2023-04-03T03:42:13.590Z,100.00
2023-04-03T03:44:43.884Z,100.00
2023-04-03T03:47:14.454Z,100.00
2023-04-03T03:49:47.539Z,100.00
2023-04-03T03:52:18.210Z,100.00
2023-04-03T03:54:48.359Z,100.00
2023-04-03T03:57:20.065Z,100.00
2023-04-03T03:59:51.533Z,100.00
2023-04-03T04:02:22.804Z,100.00
2023-04-03T04:04:55.686Z,100.00
2023-04-03T04:07:29.508Z,100.00
2023-04-03T04:10:00.686Z,100.00
2023-04-03T04:12:30.794Z,100.00
2023-04-03T04:15:01.339Z,100.00
2023-04-03T04:17:32.736Z,100.00
2023-04-03T04:20:06.443Z,100.00
2023-04-03T04:22:37.422Z,100.00
2023-04-03T04:25:09.278Z,100.00
2023-04-03T04:27:41.167Z,100.00
2023-04-03T04:30:13.963Z,100.00
2023-04-03T04:32:44.822Z,100.00
2023-04-03T04:35:18.386Z,100.00
2023-04-03T04:37:51.762Z,100.00
2023-04-03T04:40:22.430Z,100.00
2023-04-03T04:42:53.046Z,100.00
2023-04-03T04:45:23.506Z,100.00
2023-04-03T04:47:54.436Z,100.00
2023-04-03T04:50:27.490Z,100.00
2023-04-03T04:52:58.934Z,100.00
2023-04-03T04:55:29.019Z,100.00
2023-04-03T04:57:59.967Z,100.00
2023-04-03T05:00:33.300Z,100.00
2023-04-03T05:03:03.615Z,100.00
2023-04-03T05:05:46.794Z,100.00
2023-04-03T05:08:17.509Z,100.00
2023-04-03T05:10:49.756Z,97.89
2023-04-03T05:13:21.284Z,100.00
2023-04-03T05:15:51.571Z,99.04
2023-04-03T05:18:22.051Z,97.34
2023-04-03T05:20:55.551Z,100.00
2023-04-03T05:23:28.114Z,99.00
2023-04-03T05:26:00.060Z,97.83
2023-04-03T05:28:31.283Z,97.09
2023-04-03T05:31:02.866Z,96.22
2023-04-03T05:33:37.878Z,95.67
2023-04-03T05:36:14.337Z,94.03
2023-04-03T05:38:49.264Z,95.44
2023-04-03T05:41:19.761Z,97.70
2023-04-03T05:43:50.752Z,99.05
2023-04-03T05:46:23.425Z,95.87
2023-04-03T05:48:57.688Z,98.06
2023-04-03T05:51:38.484Z,96.03
2023-04-03T05:54:20.598Z,100.00
2023-04-03T05:56:51.321Z,97.76
2023-04-03T05:59:22.772Z,98.28
2023-04-03T06:01:57.665Z,94.93
2023-04-03T06:04:28.663Z,98.23
2023-04-03T06:07:02.094Z,91.35
2023-04-03T06:09:33.191Z,89.82
2023-04-03T06:12:03.662Z,90.64
2023-04-03T06:14:34.497Z,93.72
2023-04-03T06:17:05.679Z,86.59
2023-04-03T06:19:36.401Z,89.62
2023-04-03T06:22:08.959Z,85.55
2023-04-03T06:24:39.053Z,89.24
2023-04-03T06:27:09.353Z,81.72
2023-04-03T06:29:39.439Z,80.51
2023-04-03T06:32:10.379Z,81.59
2023-04-03T06:34:41.214Z,82.85
2023-04-03T06:37:15.045Z,86.18
2023-04-03T06:39:45.446Z,80.02
2023-04-03T06:42:16.291Z,79.39
2023-04-03T06:44:57.026Z,81.13
2023-04-03T06:47:27.448Z,82.19
2023-04-03T06:49:58.929Z,83.97
2023-04-03T06:52:31.953Z,81.93
2023-04-03T06:55:02.170Z,79.28
2023-04-03T06:57:32.772Z,77.51
2023-04-03T07:00:03.465Z,84.14
2023-04-03T07:02:33.527Z,76.81
2023-04-03T07:05:03.860Z,78.54
2023-04-03T07:07:37.059Z,75.53
2023-04-03T07:10:08.879Z,80.68
2023-04-03T07:12:39.305Z,71.44
2023-04-03T07:15:11.297Z,74.45
2023-04-03T07:17:41.429Z,73.66
2023-04-03T07:20:13.526Z,86.09
2023-04-03T07:22:46.319Z,85.53
2023-04-03T07:25:16.388Z,71.51
2023-04-03T07:27:46.473Z,71.18
2023-04-03T07:30:17.894Z,76.43
2023-04-03T07:32:47.882Z,70.00
2023-04-03T07:35:19.642Z,68.91
2023-04-03T07:37:52.249Z,66.29
2023-04-03T07:40:22.602Z,62.72
2023-04-03T07:42:53.689Z,66.27
2023-04-03T07:45:24.073Z,64.44
2023-04-03T07:47:54.217Z,68.08
2023-04-03T07:50:26.377Z,66.56
2023-04-03T07:52:59.092Z,64.84
2023-04-03T07:55:29.186Z,65.63
2023-04-03T07:57:59.582Z,71.50
2023-04-03T08:00:29.701Z,64.83
2023-04-03T08:02:59.910Z,65.57
2023-04-03T08:05:30.497Z,61.00
2023-04-03T08:08:03.095Z,57.68
2023-04-03T08:10:34.540Z,59.91
2023-04-03T08:13:05.065Z,67.40
2023-04-03T08:15:35.650Z,58.71
2023-04-03T08:18:06.978Z,60.32
2023-04-03T08:20:37.610Z,58.50
2023-04-03T08:23:10.651Z,58.83
2023-04-03T08:25:42.060Z,59.10
2023-04-03T08:28:12.713Z,61.09
2023-04-03T08:30:43.683Z,60.65
2023-04-03T08:33:14.833Z,63.75
2023-04-03T08:35:45.402Z,59.75
2023-04-03T08:38:18.263Z,56.18
2023-04-03T08:40:48.660Z,54.29
2023-04-03T08:43:35.752Z,53.76
2023-04-03T08:46:09.260Z,55.06
2023-04-03T08:48:44.923Z,54.65
2023-04-03T08:51:19.604Z,54.63
2023-04-03T08:54:00.402Z,55.75
2023-04-03T08:56:30.814Z,54.73
2023-04-03T08:59:04.032Z,54.96
2023-04-03T09:01:39.634Z,55.89
2023-04-03T09:04:17.458Z,55.26
2023-04-03T09:06:53.122Z,54.54
2023-04-03T09:09:36.327Z,55.96
2023-04-03T09:12:25.053Z,56.42
2023-04-03T09:15:07.078Z,55.74
2023-04-03T09:17:52.542Z,55.54
2023-04-03T09:20:28.738Z,52.77
2023-04-03T09:22:58.811Z,52.08
2023-04-03T09:25:38.164Z,54.33
2023-04-03T09:28:12.869Z,52.36
2023-04-03T09:30:43.208Z,53.75
2023-04-03T09:33:15.090Z,49.51
2023-04-03T09:35:48.470Z,48.13
2023-04-03T09:38:22.398Z,48.83
2023-04-03T09:41:09.956Z,50.31
2023-04-03T09:43:42.769Z,50.70
2023-04-03T09:46:30.219Z,52.01
2023-04-03T09:49:09.570Z,51.42
2023-04-03T09:51:42.053Z,50.87
2023-04-03T09:54:38.657Z,49.41
2023-04-03T09:57:15.671Z,48.30
2023-04-03T09:59:51.239Z,48.55
2023-04-03T10:02:36.648Z,50.92
2023-04-03T10:05:09.905Z,50.65
2023-04-03T10:07:44.683Z,51.81
2023-04-03T10:10:26.743Z,52.03
2023-04-03T10:13:14.336Z,52.14
2023-04-03T10:15:55.237Z,53.24
2023-04-03T10:18:36.515Z,52.44
2023-04-03T10:21:21.058Z,55.02
2023-04-03T10:24:05.457Z,52.51
2023-04-03T10:26:45.280Z,53.87
2023-04-03T10:29:31.709Z,56.44
2023-04-03T10:32:15.294Z,54.40
2023-04-03T10:35:02.332Z,53.71
2023-04-03T10:37:46.240Z,54.05
2023-04-03T10:40:28.140Z,52.25
2023-04-03T10:43:06.642Z,51.74
2023-04-03T10:45:53.149Z,54.27
2023-04-03T10:48:38.658Z,52.86
2023-04-03T10:51:20.141Z,52.99
2023-04-03T10:53:56.701Z,52.86
2023-04-03T10:56:34.905Z,54.71
2023-04-03T10:59:12.290Z,52.19
2023-04-03T11:01:48.307Z,51.92
2023-04-03T11:04:22.814Z,51.62
2023-04-03T11:06:57.603Z,51.25
2023-04-03T11:09:32.466Z,51.20
2023-04-03T11:12:08.444Z,51.96
2023-04-03T11:14:40.105Z,52.33
2023-04-03T11:17:23.915Z,51.66
2023-04-03T11:20:04.147Z,52.20
2023-04-03T11:22:38.983Z,51.66
2023-04-03T11:25:21.145Z,53.65
2023-04-03T11:27:54.848Z,49.43
2023-04-03T11:30:28.910Z,49.08
2023-04-03T11:33:21.030Z,47.56
2023-04-03T11:35:55.863Z,46.92
2023-04-03T11:38:36.023Z,45.59
2023-04-03T11:41:09.096Z,47.28
2023-04-03T11:43:46.107Z,47.90
2023-04-03T11:46:17.590Z,49.16
2023-04-03T11:48:56.874Z,47.99
2023-04-03T11:51:50.973Z,47.72
2023-04-03T11:54:44.855Z,47.51
2023-04-03T11:57:49.167Z,48.47
2023-04-03T12:00:51.104Z,48.34
2023-04-03T12:03:59.171Z,49.80
2023-04-03T12:07:16.397Z,47.08
2023-04-03T12:10:31.603Z,46.79
2023-04-03T12:13:05.239Z,45.42
2023-04-03T12:15:58.351Z,45.17
2023-04-03T12:19:04.476Z,47.51
2023-04-03T12:22:05.250Z,44.13
2023-04-03T12:24:40.738Z,43.43
2023-04-03T12:27:38.174Z,43.25
2023-04-03T12:30:19.666Z,44.51
2023-04-03T12:33:11.976Z,44.00
2023-04-03T12:35:53.472Z,46.92
2023-04-03T12:38:46.107Z,43.64
2023-04-03T12:41:27.866Z,44.35
2023-04-03T12:44:13.406Z,42.78
2023-04-03T12:46:48.032Z,41.82
2023-04-03T12:49:39.252Z,42.28
2023-04-03T12:52:21.019Z,40.68
2023-04-03T12:54:52.736Z,41.79
2023-04-03T12:57:28.907Z,39.35
2023-04-03T12:59:59.693Z,40.12
2023-04-03T13:02:32.601Z,41.09
2023-04-03T13:05:09.160Z,41.63
2023-04-03T13:07:43.392Z,39.01
2023-04-03T13:10:19.798Z,38.64
2023-04-03T13:12:54.817Z,39.00
2023-04-03T13:15:26.988Z,41.43
2023-04-03T13:17:58.987Z,44.13
2023-04-03T13:20:31.974Z,45.50
2023-04-03T13:23:06.009Z,45.04
2023-04-03T13:25:39.309Z,43.80
2023-04-03T13:28:16.941Z,44.20
2023-04-03T13:31:00.289Z,42.58
2023-04-03T13:33:34.210Z,41.21
2023-04-03T13:36:08.926Z,42.78
2023-04-03T13:38:39.240Z,42.83
2023-04-03T13:41:27.646Z,42.80
2023-04-03T13:44:10.295Z,42.46
2023-04-03T13:46:42.547Z,42.28
2023-04-03T13:49:24.614Z,42.66
2023-04-03T13:52:06.642Z,42.21
2023-04-03T13:54:39.881Z,42.32
2023-04-03T13:57:18.063Z,40.06
2023-04-03T13:59:51.164Z,40.45
2023-04-03T14:02:25.387Z,40.96
2023-04-03T14:04:59.654Z,41.18
2023-04-03T14:07:30.709Z,42.46
2023-04-03T14:10:01.616Z,42.17
2023-04-03T14:12:35.096Z,41.11
2023-04-03T14:15:16.518Z,42.40
2023-04-03T14:17:47.250Z,42.31
2023-04-03T14:20:19.833Z,40.70
2023-04-03T14:22:49.964Z,43.52
2023-04-03T14:25:20.443Z,41.63
2023-04-03T14:27:52.940Z,45.32
2023-04-03T14:30:27.903Z,43.49
2023-04-03T14:32:58.995Z,40.26
2023-04-03T14:35:30.192Z,39.24
2023-04-03T14:38:00.248Z,37.50
2023-04-03T14:40:31.475Z,37.69
2023-04-03T14:43:01.942Z,42.16
2023-04-03T14:45:34.601Z,44.36
2023-04-03T14:48:04.936Z,46.55
2023-04-03T14:50:35.137Z,44.50
2023-04-03T14:53:05.981Z,44.00
2023-04-03T14:55:39.651Z,43.88
2023-04-03T14:58:09.879Z,43.96
2023-04-03T15:00:43.174Z,43.33
2023-04-03T15:03:17.731Z,44.97
2023-04-03T15:05:49.061Z,43.20
2023-04-03T15:08:25.576Z,43.94
2023-04-03T15:10:56.962Z,43.70
2023-04-03T15:13:27.850Z,44.06
2023-04-03T15:16:01.820Z,44.17
2023-04-03T15:18:39.379Z,44.52
2023-04-03T15:21:09.723Z,47.23
2023-04-03T15:23:39.901Z,45.97
2023-04-03T15:26:10.507Z,45.83
2023-04-03T15:28:43.679Z,46.60
2023-04-03T15:31:16.636Z,46.79
2023-04-03T15:33:46.747Z,46.26
2023-04-03T15:36:32.824Z,46.04
2023-04-03T15:39:04.510Z,45.77
2023-04-03T15:41:34.961Z,45.65
2023-04-03T15:44:05.004Z,41.32
2023-04-03T15:46:37.839Z,40.91
2023-04-03T15:49:08.255Z,40.59
2023-04-03T15:51:39.549Z,38.10
2023-04-03T15:54:09.808Z,36.45
2023-04-03T15:56:40.015Z,38.65
2023-04-03T15:59:10.584Z,40.62
2023-04-03T16:01:44.362Z,41.77
2023-04-03T16:04:15.825Z,43.07
2023-04-03T16:06:46.637Z,44.69
2023-04-03T16:09:17.027Z,47.21
2023-04-03T16:11:47.106Z,44.97
2023-04-03T16:14:17.120Z,44.97
2023-04-03T16:16:50.273Z,46.36
2023-04-03T16:19:22.085Z,46.04
2023-04-03T16:21:52.833Z,45.13
2023-04-03T16:24:23.054Z,44.55
2023-04-03T16:26:54.576Z,43.88
2023-04-03T16:29:24.843Z,44.76
2023-04-03T16:31:57.699Z,43.50
2023-04-03T16:34:28.942Z,46.36
2023-04-03T16:36:59.059Z,43.83
2023-04-03T16:39:29.437Z,44.20
2023-04-03T16:41:59.808Z,44.82
2023-04-03T16:44:30.179Z,46.27
2023-04-03T16:47:02.837Z,44.22
2023-04-03T16:49:34.102Z,42.38
2023-04-03T16:52:04.889Z,42.41
2023-04-03T16:54:36.306Z,43.39
2023-04-03T16:57:06.646Z,43.28
2023-04-03T16:59:36.834Z,44.07
2023-04-03T17:02:10.054Z,44.37
2023-04-03T17:04:42.505Z,45.32
2023-04-03T17:07:12.973Z,46.03
2023-04-03T17:09:43.247Z,46.31
2023-04-03T17:12:13.817Z,46.64
2023-04-03T17:14:44.341Z,47.19
2023-04-03T17:17:17.314Z,47.40
2023-04-03T17:19:48.338Z,47.13
2023-04-03T17:22:18.888Z,47.12
2023-04-03T17:24:48.834Z,46.85
2023-04-03T17:27:19.180Z,46.82
2023-04-03T17:29:49.168Z,46.94
2023-04-03T17:32:22.040Z,47.38
2023-04-03T17:34:52.518Z,47.92
2023-04-03T17:37:22.830Z,48.23
2023-04-03T17:39:52.859Z,47.90
2023-04-03T17:42:23.248Z,48.43
2023-04-03T17:44:53.220Z,50.20
2023-04-03T17:47:26.394Z,49.04
2023-04-03T17:49:56.533Z,52.58
2023-04-03T17:52:29.036Z,49.46
2023-04-03T17:54:59.672Z,50.71
2023-04-03T17:57:31.811Z,50.46
2023-04-03T18:00:02.212Z,51.25
2023-04-03T18:02:58.196Z,51.59
2023-04-03T18:05:33.384Z,53.36
2023-04-03T18:08:04.608Z,53.90
2023-04-03T18:10:37.900Z,57.62
2023-04-03T18:13:09.884Z,53.21
2023-04-03T18:15:46.656Z,54.43
2023-04-03T18:18:19.405Z,53.25
2023-04-03T18:20:49.782Z,54.17
2023-04-03T18:23:26.331Z,53.70
2023-04-03T18:25:57.663Z,54.34
2023-04-03T18:28:32.325Z,54.68
2023-04-03T18:31:05.641Z,53.46
2023-04-03T18:33:39.697Z,53.48
2023-04-03T18:36:09.979Z,55.15
2023-04-03T18:38:41.019Z,54.06
2023-04-03T18:41:13.789Z,55.14
2023-04-03T18:43:45.586Z,54.55
2023-04-03T18:46:16.161Z,54.63
2023-04-03T18:48:49.370Z,55.07
2023-04-03T18:51:19.530Z,54.58
2023-04-03T18:53:52.887Z,55.96
2023-04-03T18:56:23.124Z,57.51
2023-04-03T18:58:53.640Z,59.25
2023-04-03T19:01:25.267Z,57.28
2023-04-03T19:03:59.204Z,58.67
2023-04-03T19:06:32.997Z,58.84
2023-04-03T19:09:03.259Z,57.16
2023-04-03T19:11:36.338Z,57.52
2023-04-03T19:14:16.802Z,55.79
2023-04-03T19:16:51.212Z,55.77
2023-04-03T19:19:24.004Z,54.33
2023-04-03T19:21:54.024Z,54.31
2023-04-03T19:24:25.915Z,54.94
2023-04-03T19:26:58.243Z,55.33
2023-04-03T19:29:28.805Z,54.85
2023-04-03T19:31:59.232Z,58.07
2023-04-03T19:34:34.395Z,55.97
2023-04-03T19:37:06.056Z,56.75
2023-04-03T19:39:36.770Z,59.34
2023-04-03T19:42:08.081Z,57.65
2023-04-03T19:44:39.008Z,59.31
2023-04-03T19:47:16.770Z,57.72
2023-04-03T19:49:49.406Z,64.68
2023-04-03T19:52:20.047Z,59.29
2023-04-03T19:54:51.774Z,57.06
2023-04-03T19:57:25.035Z,56.96
2023-04-03T19:59:55.158Z,62.85
2023-04-03T20:02:25.622Z,56.14
2023-04-03T20:04:58.395Z,56.32
2023-04-03T20:07:28.612Z,57.77
2023-04-03T20:09:58.543Z,57.07
2023-04-03T20:12:29.768Z,57.28
2023-04-03T20:15:04.351Z,58.02
2023-04-03T20:17:34.882Z,60.27
2023-04-03T20:20:09.834Z,60.69
2023-04-03T20:22:41.296Z,60.84
2023-04-03T20:25:17.464Z,59.69
2023-04-03T20:27:56.950Z,58.70
2023-04-03T20:30:27.179Z,60.17
2023-04-03T20:32:59.354Z,62.35
2023-04-03T20:35:32.475Z,63.26
2023-04-03T20:38:03.090Z,65.20
2023-04-03T20:40:33.447Z,65.88
2023-04-03T20:43:04.504Z,69.63
2023-04-03T20:45:35.011Z,65.76
2023-04-03T20:48:06.127Z,69.44
2023-04-03T20:50:39.082Z,69.66
2023-04-03T20:53:09.723Z,74.64
2023-04-03T20:55:39.765Z,70.02
2023-04-03T20:58:11.703Z,70.56
2023-04-03T21:00:43.822Z,70.97
2023-04-03T21:03:14.148Z,85.59
2023-04-03T21:05:47.062Z,72.77
2023-04-03T21:08:48.092Z,73.44
2023-04-03T21:11:48.120Z,83.85
2023-04-03T21:14:48.791Z,77.33
2023-04-03T21:17:18.538Z,69.80
2023-04-03T21:19:53.493Z,77.02
2023-04-03T21:22:23.590Z,81.14
2023-04-03T21:24:53.833Z,76.91
2023-04-03T21:27:23.895Z,76.88
2023-04-03T21:29:54.064Z,87.35
2023-04-03T21:32:24.136Z,81.17
2023-04-03T21:34:57.436Z,79.51
2023-04-03T21:37:27.536Z,90.88
2023-04-03T21:39:57.519Z,85.35
2023-04-03T21:42:27.833Z,81.83
2023-04-03T21:44:58.518Z,83.21
2023-04-03T21:47:29.081Z,81.40
2023-04-03T21:50:02.520Z,82.71
2023-04-03T21:52:33.077Z,83.06
2023-04-03T21:55:05.972Z,82.49
2023-04-03T21:57:37.533Z,83.78
2023-04-03T22:00:12.755Z,83.42
2023-04-03T22:02:43.546Z,83.94
2023-04-03T22:05:16.849Z,85.57
2023-04-03T22:07:48.084Z,91.95
2023-04-03T22:10:18.488Z,85.64
2023-04-03T22:12:48.678Z,96.00
2023-04-03T22:15:18.977Z,94.78
2023-04-03T22:17:49.339Z,85.01
2023-04-03T22:20:22.572Z,86.61
2023-04-03T22:22:53.510Z,85.35
2023-04-03T22:25:23.818Z,98.60
2023-04-03T22:27:54.086Z,92.04
2023-04-03T22:30:24.391Z,86.46
2023-04-03T22:32:56.004Z,87.33
2023-04-03T22:35:29.465Z,88.38
2023-04-03T22:38:02.114Z,91.23
2023-04-03T22:40:35.636Z,89.33
2023-04-03T22:43:06.621Z,91.19
2023-04-03T22:45:36.923Z,92.50
2023-04-03T22:48:08.454Z,92.57
2023-04-03T22:50:48.161Z,97.71
2023-04-03T22:53:21.993Z,97.59
2023-04-03T22:56:02.485Z,96.32
2023-04-03T22:58:33.003Z,99.12
2023-04-03T23:01:08.258Z,100.00
2023-04-03T23:03:39.555Z,100.00
2023-04-03T23:06:14.315Z,100.00
2023-04-03T23:08:45.204Z,100.00
2023-04-03T23:11:15.556Z,100.00
2023-04-03T23:13:46.881Z,100.00
2023-04-03T23:16:17.924Z,100.00
2023-04-03T23:18:50.201Z,100.00
2023-04-03T23:21:23.328Z,100.00
2023-04-03T23:23:53.802Z,100.00
2023-04-03T23:26:27.523Z,100.00
2023-04-03T23:28:57.754Z,100.00
2023-04-03T23:31:28.182Z,100.00
2023-04-03T23:33:58.721Z,100.00
2023-04-03T23:36:34.020Z,100.00
2023-04-03T23:39:05.156Z,100.00
2023-04-03T23:41:36.099Z,100.00
2023-04-03T23:44:06.631Z,100.00
2023-04-03T23:46:36.643Z,100.00
2023-04-03T23:49:06.794Z,100.00
2023-04-03T23:51:39.951Z,100.00
2023-04-03T23:54:11.958Z,100.00
2023-04-03T23:56:42.486Z,100.00
2023-04-03T23:59:12.499Z,100.00
